Time;durP1;ratioP1;P1;durP2;ratioP2;P2;SDS_P1;SDS_P2;PMS_P1;PMS_P2;Temp;Humidity;BMP_temperature;BMP_pressure;BME280_temperature;BME280_humidity;BME280_pressure;Samples;Min_cycle;Max_cycle;Signal;HPM_P1;HPM_P2
2021/08/20 19:54:27;;;;;;;4.35;2.25;;;21.70;99.90;;;;;;5119910;27;20123;-72
2021/08/20 19:56:54;;;;;;;4.40;2.38;;;21.00;99.90;;;;;;5100694;27;20543;-71
2021/08/20 19:59:21;;;;;;;5.70;2.33;;;20.50;99.90;;;;;;5079736;28;20056;-71
2021/08/20 20:01:48;;;;;;;5.60;2.17;;;20.30;99.90;;;;;;5086754;28;20515;-71
2021/08/20 20:04:15;;;;;;;6.45;2.70;;;20.20;99.90;;;;;;5088775;28;20082;-71
2021/08/20 20:06:42;;;;;;;7.78;2.85;;;19.90;99.90;;;;;;5089570;28;20101;-72
2021/08/20 20:09:11;;;;;;;6.40;2.58;;;19.60;99.90;;;;;;5085288;28;20051;-72
2021/08/20 20:11:40;;;;;;;5.15;2.40;;;19.40;99.90;;;;;;5087588;28;20387;-72
2021/08/20 20:14:07;;;;;;;5.22;2.75;;;19.40;99.90;;;;;;5088217;28;20063;-72
2021/08/20 20:16:35;;;;;;;8.50;3.38;;;19.40;99.90;;;;;;5087480;28;20131;-72
2021/08/20 20:19:02;;;;;;;8.15;3.40;;;19.50;99.90;;;;;;5088943;28;20479;-72
2021/08/20 20:21:29;;;;;;;5.65;2.80;;;19.40;99.90;;;;;;5090829;28;20052;-71
2021/08/20 20:23:56;;;;;;;7.65;4.03;;;19.30;99.90;;;;;;5085492;28;20360;-71
2021/08/20 20:26:23;;;;;;;7.70;3.88;;;19.20;99.90;;;;;;5089324;28;20533;-71
2021/08/20 20:28:52;;;;;;;12.85;4.05;;;18.90;99.90;;;;;;5087838;28;20400;-71
2021/08/20 20:31:19;;;;;;;8.55;4.28;;;18.90;99.90;;;;;;5087331;28;20499;-71
2021/08/20 20:33:46;;;;;;;7.85;4.20;;;18.90;99.90;;;;;;5087274;28;20051;-71
2021/08/20 20:36:13;;;;;;;12.48;4.35;;;18.70;99.90;;;;;;5088713;28;20051;-71
2021/08/20 20:38:40;;;;;;;8.25;3.65;;;18.60;99.90;;;;;;5088575;28;20486;-72
2021/08/20 20:41:08;;;;;;;10.80;4.47;;;18.60;99.90;;;;;;5086947;28;20139;-71
2021/08/20 20:43:35;;;;;;;9.20;4.03;;;18.60;99.90;;;;;;5088990;28;21098;-71
2021/08/20 20:46:03;;;;;;;5.70;3.60;;;18.60;99.90;;;;;;5088827;28;20076;-71
2021/08/20 20:48:30;;;;;;;8.20;3.83;;;18.60;99.90;;;;;;5088657;28;20048;-71
2021/08/20 20:50:58;;;;;;;9.30;3.58;;;18.50;99.90;;;;;;5087138;28;20079;-71
2021/08/20 20:53:25;;;;;;;6.13;3.35;;;18.50;99.90;;;;;;5089543;28;20048;-71
2021/08/20 20:55:52;;;;;;;6.95;3.22;;;18.50;99.90;;;;;;5085743;28;20930;-71
2021/08/20 20:58:21;;;;;;;8.18;3.47;;;18.40;99.90;;;;;;5085704;28;20048;-71
2021/08/20 21:00:49;;;;;;;7.85;3.70;;;18.40;99.90;;;;;;5082682;28;20063;-71
2021/08/20 21:03:18;;;;;;;6.55;3.97;;;18.30;99.90;;;;;;5073616;28;20052;-71
2021/08/20 21:05:45;;;;;;;6.95;4.07;;;18.20;99.90;;;;;;5067374;28;20055;-72
2021/08/20 21:08:12;;;;;;;8.20;4.07;;;18.20;99.90;;;;;;5066906;28;20048;-71
2021/08/20 21:10:39;;;;;;;6.43;3.38;;;17.90;99.90;;;;;;5071606;28;20051;-71
2021/08/20 21:13:07;;;;;;;7.93;3.63;;;18.00;99.90;;;;;;5067296;28;20118;-72
2021/08/20 21:15:34;;;;;;;6.32;3.35;;;18.00;99.90;;;;;;5074642;28;20086;-72
2021/08/20 21:18:01;;;;;;;6.90;3.70;;;18.00;99.90;;;;;;5074645;28;20048;-72
2021/08/20 21:20:30;;;;;;;8.50;3.45;;;17.90;99.90;;;;;;5075693;28;20458;-73
2021/08/20 21:22:57;;;;;;;7.68;3.75;;;17.80;99.90;;;;;;5074881;28;20075;-72
2021/08/20 21:25:24;;;;;;;6.43;3.30;;;17.80;99.90;;;;;;5064144;28;20692;-72
2021/08/20 21:27:51;;;;;;;11.52;3.28;;;17.70;99.90;;;;;;5066064;28;20419;-72
2021/08/20 21:30:19;;;;;;;7.63;3.63;;;17.80;99.90;;;;;;5070452;28;21156;-72
2021/08/20 21:32:46;;;;;;;6.22;3.33;;;17.80;99.90;;;;;;5073119;28;20503;-72
2021/08/20 21:35:14;;;;;;;5.63;3.17;;;17.80;99.90;;;;;;5072524;28;20101;-72
2021/08/20 21:37:42;;;;;;;7.43;3.33;;;17.80;99.90;;;;;;5070011;28;20083;-73
2021/08/20 21:40:11;;;;;;;7.43;3.70;;;17.80;99.90;;;;;;5072224;28;20060;-72
2021/08/20 21:42:38;;;;;;;6.70;3.53;;;17.70;99.90;;;;;;5073185;28;20082;-72
2021/08/20 21:45:05;;;;;;;8.07;4.18;;;17.60;99.90;;;;;;5073941;28;20080;-73
2021/08/20 21:47:34;;;;;;;7.10;3.97;;;17.50;99.90;;;;;;5075092;28;20051;-72
2021/08/20 21:50:01;;;;;;;7.82;3.53;;;17.60;99.90;;;;;;5069715;28;20725;-72
2021/08/20 21:52:28;;;;;;;6.28;3.45;;;17.40;99.90;;;;;;5075236;28;20120;-72
2021/08/20 21:54:56;;;;;;;9.88;3.40;;;17.30;99.90;;;;;;5077244;28;20079;-72
2021/08/20 21:57:23;;;;;;;8.40;3.58;;;17.40;99.90;;;;;;5072221;28;20039;-72
2021/08/20 21:59:50;;;;;;;7.50;3.50;;;17.30;99.90;;;;;;5071337;28;20098;-72
2021/08/20 22:02:17;;;;;;;9.52;4.22;;;17.30;99.90;;;;;;5070163;28;20579;-72
2021/08/20 22:04:44;;;;;;;5.55;3.15;;;17.20;99.90;;;;;;5071334;28;21374;-72
2021/08/20 22:07:11;;;;;;;7.60;3.88;;;17.10;99.90;;;;;;5067157;28;20056;-73
2021/08/20 22:09:38;;;;;;;9.05;4.13;;;17.10;99.90;;;;;;5072725;28;20135;-72
2021/08/20 22:12:07;;;;;;;11.07;4.88;;;17.10;99.90;;;;;;5067308;28;20102;-72
2021/08/20 22:14:35;;;;;;;7.68;3.97;;;17.00;99.90;;;;;;5066419;28;20089;-73
2021/08/20 22:17:02;;;;;;;7.70;3.80;;;17.00;99.90;;;;;;5067268;28;20076;-72
2021/08/20 22:19:29;;;;;;;7.82;3.38;;;17.10;99.90;;;;;;5069259;28;20124;-72
2021/08/20 22:21:56;;;;;;;7.47;3.95;;;17.00;99.90;;;;;;5069729;28;20097;-72
2021/08/20 22:24:23;;;;;;;8.10;4.15;;;17.00;99.90;;;;;;5070519;28;20048;-72
2021/08/20 22:26:50;;;;;;;7.40;3.92;;;16.90;99.90;;;;;;5076082;28;20539;-72
2021/08/20 22:29:20;;;;;;;7.18;3.88;;;16.80;99.90;;;;;;5073147;28;20556;-72
2021/08/20 22:31:47;;;;;;;8.38;4.03;;;16.80;99.90;;;;;;5073607;28;20114;-72
2021/08/20 22:34:14;;;;;;;7.32;4.10;;;16.60;99.90;;;;;;5070999;28;20105;-72
2021/08/20 22:36:41;;;;;;;8.38;4.03;;;16.60;99.90;;;;;;5072275;28;20052;-72
2021/08/20 22:39:08;;;;;;;7.95;3.90;;;16.70;99.90;;;;;;5071451;28;20048;-72
2021/08/20 22:41:35;;;;;;;8.43;4.10;;;16.70;99.90;;;;;;5074086;28;20120;-72
2021/08/20 22:44:02;;;;;;;7.43;4.25;;;16.70;99.90;;;;;;5070873;28;20552;-72
2021/08/20 22:46:30;;;;;;;8.32;4.30;;;16.80;99.90;;;;;;5073328;28;20096;-72
2021/08/20 22:48:57;;;;;;;7.10;4.40;;;16.80;99.90;;;;;;5072502;28;20043;-71
2021/08/20 22:51:24;;;;;;;10.02;4.82;;;16.80;99.90;;;;;;5071028;28;21263;-73
2021/08/20 22:53:53;;;;;;;7.78;5.07;;;16.70;99.90;;;;;;5066096;28;20079;-72
2021/08/20 22:56:20;;;;;;;8.15;4.60;;;16.60;99.90;;;;;;5062573;28;20051;-73
2021/08/20 22:58:47;;;;;;;8.82;4.65;;;16.50;99.90;;;;;;5063337;28;20078;-72
2021/08/20 23:01:14;;;;;;;7.70;4.50;;;16.60;99.90;;;;;;5061410;28;20583;-74
2021/08/20 23:03:42;;;;;;;6.85;4.25;;;16.70;99.90;;;;;;5057261;28;20048;-75
2021/08/20 23:06:09;;;;;;;10.20;4.63;;;16.70;99.90;;;;;;5062786;28;20051;-72
2021/08/20 23:08:36;;;;;;;10.13;4.97;;;16.70;99.90;;;;;;5064561;28;20079;-75
2021/08/20 23:11:03;;;;;;;8.43;4.93;;;16.60;99.90;;;;;;5058551;28;20148;-74
2021/08/20 23:13:30;;;;;;;8.63;4.80;;;16.50;99.90;;;;;;5064830;28;20083;-74
2021/08/20 23:15:57;;;;;;;8.95;4.85;;;16.40;99.90;;;;;;5066384;28;20043;-74
2021/08/20 23:18:24;;;;;;;7.47;4.57;;;16.40;99.90;;;;;;5065938;28;20150;-74
2021/08/20 23:20:55;;;;;;;8.82;5.20;;;16.30;99.90;;;;;;5066930;28;20044;-73
2021/08/20 23:23:22;;;;;;;8.40;4.50;;;16.30;99.90;;;;;;5066042;28;20112;-74
2021/08/20 23:25:49;;;;;;;8.68;4.97;;;16.10;99.90;;;;;;5072430;28;20108;-74
2021/08/20 23:28:16;;;;;;;12.77;5.10;;;16.10;99.90;;;;;;5070060;28;20097;-74
2021/08/20 23:30:43;;;;;;;8.80;4.80;;;16.10;99.90;;;;;;5070923;28;20131;-73
2021/08/20 23:33:10;;;;;;;9.40;4.80;;;16.20;99.90;;;;;;5070210;28;20958;-73
2021/08/20 23:35:37;;;;;;;9.80;4.95;;;16.20;99.90;;;;;;5068439;28;20125;-73
2021/08/20 23:38:06;;;;;;;8.52;4.43;;;16.30;99.90;;;;;;5068414;28;20140;-74
2021/08/20 23:40:33;;;;;;;7.45;4.40;;;16.30;99.90;;;;;;5065550;28;20466;-73
2021/08/20 23:43:00;;;;;;;9.27;5.10;;;16.20;99.90;;;;;;5065925;28;20163;-73
2021/08/20 23:45:27;;;;;;;11.52;5.30;;;16.10;99.90;;;;;;5068943;28;20573;-73
2021/08/20 23:47:54;;;;;;;8.48;4.70;;;16.00;99.90;;;;;;5067893;28;20056;-73
2021/08/20 23:50:21;;;;;;;8.48;5.07;;;16.00;99.90;;;;;;5072189;28;20411;-73
2021/08/20 23:52:49;;;;;;;8.80;5.13;;;16.00;99.90;;;;;;5074785;28;20052;-73
2021/08/20 23:55:17;;;;;;;7.63;4.60;;;15.90;99.90;;;;;;5072841;28;20051;-73
2021/08/20 23:57:44;;;;;;;9.18;5.47;;;15.90;99.90;;;;;;5066529;28;20075;-73
